createdAt,value
2022-08-19T00:00:08.767Z,8.300
2022-08-19T00:01:07.886Z,8.399
2022-08-19T00:02:07.269Z,8.5
2022-08-19T00:03:07.175Z,8
2022-08-19T00:04:07.330Z,8.600
2022-08-19T00:05:07.377Z,8.5
2022-08-19T00:06:07.494Z,8.300
2022-08-19T00:07:07.887Z,8.600
2022-08-19T00:08:07.159Z,8.399
2022-08-19T00:12:07.871Z,8.199
2022-08-19T00:13:07.256Z,8.5
2022-08-19T00:14:07.237Z,8.600
2022-08-19T00:16:07.554Z,8.5
2022-08-19T00:17:07.690Z,8.300
2022-08-19T00:18:07.733Z,8
2022-08-19T00:19:07.428Z,8.600
2022-08-19T00:20:07.586Z,8.800
2022-08-19T00:21:07.739Z,8.300
2022-08-19T00:22:07.695Z,8.5
2022-08-19T00:23:07.613Z,9.300
2022-08-19T00:24:07.694Z,9.199
2022-08-19T00:25:08.009Z,8.699
2022-08-19T00:26:07.465Z,8.899
2022-08-19T00:27:26.221Z,8.399
2022-08-19T00:28:07.048Z,9.399
2022-08-19T00:29:07.057Z,8.300
2022-08-19T00:30:07.212Z,8.399
2022-08-19T00:33:07.311Z,8.800
2022-08-19T00:34:07.277Z,8.699
2022-08-19T00:35:07.418Z,9
2022-08-19T00:37:07.312Z,8.399
2022-08-19T00:38:07.447Z,8.600
2022-08-19T00:39:07.553Z,8.199
2022-08-19T00:40:07.491Z,8.800
2022-08-19T00:41:07.379Z,8.600
2022-08-19T00:42:07.273Z,8.399
2022-08-19T00:43:07.323Z,8.899
2022-08-19T00:44:07.555Z,8.800
2022-08-19T00:47:07.900Z,9.399
2022-08-19T00:48:14.748Z,9.199
2022-08-19T00:49:07.335Z,9.300
2022-08-19T00:50:07.245Z,9.199
2022-08-19T00:51:07.342Z,9.300
2022-08-19T00:52:07.424Z,8.899
2022-08-19T00:53:07.375Z,8.800
2022-08-19T00:54:07.598Z,9.100
2022-08-19T00:55:07.733Z,9.399
2022-08-19T00:56:07.428Z,9.199
2022-08-19T00:57:07.429Z,9.600
2022-08-19T00:59:07.464Z,9.300
2022-08-19T01:00:08.429Z,10.30
2022-08-19T01:01:07.296Z,9.800
2022-08-19T01:02:07.208Z,9.600
2022-08-19T01:03:07.383Z,9.300
2022-08-19T01:04:07.406Z,10.30
2022-08-19T01:05:07.255Z,9.399
2022-08-19T01:06:07.282Z,9.899
2022-08-19T01:07:07.211Z,9.300
2022-08-19T01:08:07.357Z,10.10
2022-08-19T01:09:07.521Z,9.5
2022-08-19T01:10:07.482Z,9.699
2022-08-19T01:11:07.499Z,9.800
2022-08-19T01:12:07.501Z,10.30
2022-08-19T01:13:07.675Z,9.899
2022-08-19T01:14:07.704Z,10.19
2022-08-19T01:15:08.014Z,9.5
2022-08-19T01:16:07.282Z,10.10
2022-08-19T01:17:07.202Z,10
2022-08-19T01:18:07.381Z,10.30
2022-08-19T01:19:07.565Z,10.19
2022-08-19T01:20:07.950Z,9.800
2022-08-19T01:21:07.191Z,9.300
2022-08-19T01:22:14.263Z,9.800
2022-08-19T01:23:07.587Z,10
2022-08-19T01:24:07.839Z,9.800
2022-08-19T01:26:07.482Z,10.19
2022-08-19T01:27:07.535Z,10.30
2022-08-19T01:28:11.093Z,10.19
2022-08-19T01:29:07.396Z,10.5
2022-08-19T01:31:08.167Z,10.80
2022-08-19T01:32:07.394Z,10.60
2022-08-19T01:33:07.202Z,10.69
2022-08-19T01:34:07.150Z,10.5
2022-08-19T01:35:07.129Z,10.10
2022-08-19T01:36:07.366Z,10.39
2022-08-19T01:37:07.393Z,10.30
2022-08-19T01:38:07.528Z,10.69
2022-08-19T01:39:07.379Z,10.5
2022-08-19T01:40:09.404Z,11.10
2022-08-19T01:41:09.753Z,10.89
2022-08-19T01:42:07.352Z,10.80
2022-08-19T01:43:07.414Z,10.5
2022-08-19T01:44:18.025Z,10.60
2022-08-19T01:45:07.545Z,10.30
2022-08-19T01:47:07.673Z,10.80
2022-08-19T01:48:07.805Z,11.30
2022-08-19T01:49:07.847Z,10.5
2022-08-19T01:50:07.946Z,10.69
2022-08-19T01:51:07.210Z,11.19
2022-08-19T01:52:07.254Z,10.69
2022-08-19T01:53:07.844Z,10.30
2022-08-19T01:54:07.610Z,10.69
2022-08-19T01:55:07.845Z,10.39
2022-08-19T01:56:07.042Z,10.60
2022-08-19T01:57:07.103Z,11
2022-08-19T01:58:07.183Z,11.19
2022-08-19T01:59:07.180Z,10.69
2022-08-19T02:00:08.065Z,10.39
2022-08-19T02:01:07.840Z,11
2022-08-19T02:02:07.302Z,10.5
2022-08-19T02:03:07.331Z,11
2022-08-19T02:04:07.303Z,10.60
2022-08-19T02:05:07.637Z,11.19
2022-08-19T02:06:07.045Z,11.69
2022-08-19T02:07:07.166Z,11.5
2022-08-19T02:08:07.173Z,11
2022-08-19T02:10:09.409Z,10.60
2022-08-19T02:11:07.706Z,10.89
2022-08-19T02:13:07.088Z,11.5
2022-08-19T02:14:07.704Z,11.10
2022-08-19T02:16:07.028Z,11.19
2022-08-19T02:17:07.231Z,11.39
2022-08-19T02:18:07.329Z,11.19
2022-08-19T02:19:07.622Z,11.10
2022-08-19T02:20:07.616Z,11.69
2022-08-19T02:22:07.605Z,11.19
2022-08-19T02:23:13.912Z,11.10
2022-08-19T02:24:07.247Z,11.19
2022-08-19T02:25:07.495Z,11.80
2022-08-19T02:26:07.545Z,12.30
2022-08-19T02:27:07.622Z,12.69
2022-08-19T02:28:07.604Z,11.5
2022-08-19T02:29:07.752Z,12.30
2022-08-19T02:30:08.245Z,11.80
2022-08-19T02:31:07.684Z,11.60
2022-08-19T02:32:07.723Z,11.80
2022-08-19T02:33:07.304Z,12.10
2022-08-19T02:34:07.290Z,12.39
2022-08-19T02:35:12.156Z,11.60
2022-08-19T02:36:07.297Z,12.30
2022-08-19T02:37:07.575Z,12
2022-08-19T02:38:07.666Z,12.19
2022-08-19T02:39:07.852Z,12.69
2022-08-19T02:40:12.403Z,12.60
2022-08-19T02:41:07.236Z,12.30
2022-08-19T02:42:07.798Z,12.89
2022-08-19T02:43:07.059Z,12.80
2022-08-19T02:44:30.163Z,13.39
2022-08-19T02:45:08.008Z,12.10
2022-08-19T02:46:07.465Z,12.80
2022-08-19T02:48:12.706Z,12.89
2022-08-19T02:50:07.768Z,12.69
2022-08-19T02:51:06.837Z,13.19
2022-08-19T02:52:07.165Z,13.30
2022-08-19T02:53:07.433Z,13
2022-08-19T02:54:07.166Z,12.80
2022-08-19T02:55:07.657Z,13.30
2022-08-19T02:56:07.815Z,13.39
2022-08-19T02:57:07.112Z,13.69
2022-08-19T02:58:07.323Z,13
2022-08-19T02:59:07.405Z,13.10
2022-08-19T03:00:08.169Z,12.89
2022-08-19T03:01:08.215Z,12.80
2022-08-19T03:02:07.674Z,12.60
2022-08-19T03:03:07.910Z,12.89
2022-08-19T03:04:07.112Z,12.69
2022-08-19T03:05:07.437Z,13.30
2022-08-19T03:06:07.502Z,12.5
2022-08-19T03:07:11.191Z,13.39
2022-08-19T03:08:07.467Z,13.5
2022-08-19T03:09:07.605Z,13.39
2022-08-19T03:10:07.699Z,12.80
2022-08-19T03:11:07.641Z,12.30
2022-08-19T03:12:07.790Z,12.89
2022-08-19T03:13:07.830Z,12.39
2022-08-19T03:14:07.055Z,13.69
2022-08-19T03:15:07.619Z,13.10
2022-08-19T03:16:07.584Z,12.89
2022-08-19T03:17:07.533Z,13.10
2022-08-19T03:18:07.544Z,12.89
2022-08-19T03:19:06.862Z,13.89
2022-08-19T03:20:07.254Z,13.60
2022-08-19T03:21:07.233Z,13.19
2022-08-19T03:22:06.948Z,13.30
2022-08-19T03:23:07.020Z,13.5
2022-08-19T03:24:07.070Z,13.39
2022-08-19T03:25:07.415Z,14
2022-08-19T03:26:15.859Z,13.89
2022-08-19T03:28:07.852Z,12.80
2022-08-19T03:29:07.235Z,14.10
2022-08-19T03:31:42.121Z,13.5
2022-08-19T03:32:08.000Z,13.80
2022-08-19T03:33:07.271Z,14.10
2022-08-19T03:34:08.147Z,14
2022-08-19T03:35:07.407Z,13.80
2022-08-19T03:36:07.591Z,13.30
2022-08-19T03:37:07.643Z,14.19
2022-08-19T03:38:07.609Z,13.5
2022-08-19T03:39:07.678Z,13.69
2022-08-19T03:40:07.913Z,12.39
2022-08-19T03:41:07.123Z,12.60
2022-08-19T03:42:38.463Z,12.69
2022-08-19T03:43:08.149Z,12
2022-08-19T03:44:07.244Z,12.39
2022-08-19T03:45:07.749Z,11.60
2022-08-19T03:46:07.238Z,12.19
2022-08-19T03:47:07.474Z,12.69
2022-08-19T03:48:08.031Z,12.30
2022-08-19T03:50:07.209Z,12.10
2022-08-19T03:51:07.294Z,12.39
2022-08-19T03:52:07.382Z,12.30
2022-08-19T03:53:07.436Z,11.5
2022-08-19T03:54:07.542Z,11.30
2022-08-19T03:55:07.698Z,12
2022-08-19T03:56:07.094Z,12.19
2022-08-19T03:58:07.346Z,12
2022-08-19T03:59:07.167Z,11.89
2022-08-19T04:00:13.805Z,12.80
2022-08-19T04:01:07.407Z,12.30
2022-08-19T04:03:07.733Z,12.5
2022-08-19T04:04:07.860Z,12.60
2022-08-19T04:05:08.069Z,12.39
2022-08-19T04:06:07.225Z,13
2022-08-19T04:07:07.687Z,12.80
2022-08-19T04:08:10.727Z,12.10
2022-08-19T04:09:07.887Z,12.30
2022-08-19T04:10:07.177Z,12.5
2022-08-19T04:11:07.093Z,12.89
2022-08-19T04:12:07.407Z,12.60
2022-08-19T04:13:07.506Z,13.10
2022-08-19T04:14:07.334Z,12.10
2022-08-19T04:15:07.815Z,12.19
2022-08-19T04:16:07.199Z,12.69
2022-08-19T04:17:07.452Z,12.10
2022-08-19T04:18:06.983Z,11.89
2022-08-19T04:19:07.293Z,12.10
2022-08-19T04:20:07.580Z,11.60
2022-08-19T04:21:07.648Z,12.10
2022-08-19T04:23:07.760Z,11.89
2022-08-19T04:24:08.077Z,12
2022-08-19T04:25:07.649Z,11.69
2022-08-19T04:26:07.379Z,11.30
2022-08-19T04:28:07.312Z,11.39
2022-08-19T04:29:11.650Z,11.69
2022-08-19T04:31:07.577Z,11.89
2022-08-19T04:32:08.550Z,11.5
2022-08-19T04:33:12.442Z,12.5
2022-08-19T04:34:07.174Z,12.69
2022-08-19T04:35:18.455Z,12.89
2022-08-19T04:36:07.159Z,11.89
2022-08-19T04:37:07.129Z,12.19
2022-08-19T04:38:07.070Z,13.10
2022-08-19T04:39:07.321Z,12.10
2022-08-19T04:40:07.572Z,12.19
2022-08-19T04:41:07.103Z,11.89
2022-08-19T04:42:07.208Z,12.30
2022-08-19T04:43:07.394Z,12.39
2022-08-19T04:44:07.484Z,12.19
2022-08-19T04:45:09.323Z,12.69
2022-08-19T04:46:07.681Z,12.39
2022-08-19T04:47:10.974Z,13.10
2022-08-19T04:48:27.206Z,12.80
2022-08-19T04:49:13.053Z,13.19
2022-08-19T04:50:07.962Z,12.60
2022-08-19T04:52:07.015Z,13.80
2022-08-19T04:53:07.217Z,12.39
2022-08-19T04:55:07.625Z,12.19
2022-08-19T04:56:07.719Z,12.60
2022-08-19T04:57:08.221Z,13.10
2022-08-19T04:58:07.403Z,13.19
2022-08-19T05:01:07.218Z,12.39
2022-08-19T05:02:07.675Z,12.89
2022-08-19T05:03:07.928Z,12.60
2022-08-19T05:04:07.220Z,13.30
2022-08-19T05:06:07.482Z,12.89
2022-08-19T05:07:07.529Z,13.39
2022-08-19T05:08:07.760Z,13.30
2022-08-19T05:09:07.216Z,13.19
2022-08-19T05:10:07.501Z,13.69
2022-08-19T05:11:07.621Z,14.10
2022-08-19T05:13:07.289Z,14.80
2022-08-19T05:14:07.265Z,15.19
2022-08-19T05:15:07.455Z,14
2022-08-19T05:16:07.051Z,14.39
2022-08-19T05:17:26.537Z,14
2022-08-19T05:18:07.661Z,14.89
2022-08-19T05:20:07.304Z,14.30
2022-08-19T05:21:07.269Z,13.80
2022-08-19T05:22:07.373Z,15.69
2022-08-19T05:23:10.815Z,14.69
2022-08-19T05:24:07.070Z,15.19
2022-08-19T05:25:13.059Z,14.69
2022-08-19T05:26:07.558Z,14.80
2022-08-19T05:27:07.300Z,14.5
2022-08-19T05:28:07.450Z,13.89
2022-08-19T05:29:07.633Z,14.60
2022-08-19T05:30:07.619Z,15.5
2022-08-19T05:31:07.117Z,14.5
2022-08-19T05:32:07.507Z,16.29
2022-08-19T05:33:07.905Z,14.10
2022-08-19T05:34:07.264Z,15.30
2022-08-19T05:35:07.424Z,16.10
2022-08-19T05:36:07.953Z,16.20
2022-08-19T05:37:07.470Z,15.80
2022-08-19T05:38:07.967Z,16.60
2022-08-19T05:39:07.473Z,16.70
2022-08-19T05:40:07.573Z,16.89
2022-08-19T05:41:07.973Z,16.39
2022-08-19T05:42:07.363Z,16.29
2022-08-19T05:43:07.640Z,16.39
2022-08-19T05:44:07.890Z,16.5
2022-08-19T05:45:08.965Z,17.79
2022-08-19T05:47:07.907Z,17.29
2022-08-19T05:48:07.283Z,17.70
2022-08-19T05:49:07.510Z,17.89
2022-08-19T05:51:07.233Z,19.10
2022-08-19T05:52:07.498Z,18.10
2022-08-19T05:53:07.429Z,18.39
2022-08-19T05:54:07.546Z,19.60
2022-08-19T05:56:07.597Z,19
2022-08-19T05:57:07.601Z,19.20
2022-08-19T05:58:07.112Z,20.20
2022-08-19T05:59:07.307Z,20
2022-08-19T06:00:08.406Z,19.60
2022-08-19T06:01:07.216Z,20.39
2022-08-19T06:02:07.785Z,19.5
2022-08-19T06:03:11.847Z,19.10
2022-08-19T06:04:07.456Z,19.29
2022-08-19T06:05:07.988Z,18.70
2022-08-19T06:06:07.466Z,21
2022-08-19T06:07:11.949Z,19.10
2022-08-19T06:08:07.594Z,18.70
2022-08-19T06:09:07.820Z,18.89
2022-08-19T06:10:08.041Z,18.29
2022-08-19T06:11:07.735Z,19.20
2022-08-19T06:12:07.526Z,18.70
2022-08-19T06:13:07.919Z,19.39
2022-08-19T06:14:07.350Z,18.5
2022-08-19T06:15:08.197Z,18.20
2022-08-19T06:16:07.672Z,18.60
2022-08-19T06:17:07.686Z,19.10
2022-08-19T06:18:07.263Z,19.39
2022-08-19T06:19:07.645Z,18.79
2022-08-19T06:20:08.056Z,19.10
2022-08-19T06:21:07.373Z,19.20
2022-08-19T06:22:07.529Z,19.39
2022-08-19T06:23:07.735Z,19.89
2022-08-19T06:24:07.114Z,19.29
2022-08-19T06:25:07.446Z,19.60
2022-08-19T06:26:07.687Z,18.60
2022-08-19T06:27:07.464Z,19.29
2022-08-19T06:28:15.781Z,19
2022-08-19T06:29:07.240Z,18.89
2022-08-19T06:30:08.128Z,19.29
2022-08-19T06:31:07.619Z,19.70
2022-08-19T06:32:07.258Z,19.20
2022-08-19T06:33:07.980Z,18.70
2022-08-19T06:34:07.259Z,19.70
2022-08-19T06:35:07.512Z,18.89
2022-08-19T06:36:07.695Z,21
2022-08-19T06:37:07.196Z,20.70
2022-08-19T06:38:07.459Z,20.39
2022-08-19T06:39:07.583Z,19.79
2022-08-19T06:40:08.109Z,21.10
2022-08-19T06:41:08.149Z,20.5
2022-08-19T06:42:07.637Z,20.89
2022-08-19T06:43:08.627Z,20.60
2022-08-19T06:44:07.694Z,21
2022-08-19T06:45:09.510Z,21.70
2022-08-19T06:46:07.363Z,21.20
2022-08-19T06:47:14.422Z,20.39
2022-08-19T06:48:07.415Z,21.70
2022-08-19T06:50:07.703Z,21.5
2022-08-19T06:51:08.757Z,21.10
2022-08-19T06:52:07.324Z,20.60
2022-08-19T06:53:07.472Z,20.39
2022-08-19T06:54:07.641Z,20.5
2022-08-19T06:55:07.597Z,21.10
2022-08-19T06:56:07.793Z,20.60
2022-08-19T06:57:07.171Z,21.29
2022-08-19T06:58:07.412Z,21.79
2022-08-19T06:59:07.381Z,21.10
2022-08-19T07:00:12.263Z,21
2022-08-19T07:01:09.146Z,20.79
2022-08-19T07:02:07.684Z,21.39
2022-08-19T07:03:08.775Z,20.89
2022-08-19T07:04:07.495Z,21.89
2022-08-19T07:05:07.930Z,21.39
2022-08-19T07:06:09.878Z,20.70
2022-08-19T07:07:20.203Z,21.60
2022-08-19T07:08:07.745Z,20.39
2022-08-19T07:09:07.969Z,19.5
2022-08-19T07:10:07.849Z,20.20
2022-08-19T07:11:09.433Z,20.79
2022-08-19T07:12:07.392Z,20
2022-08-19T07:13:07.275Z,20.60
2022-08-19T07:14:07.576Z,19.70
2022-08-19T07:15:07.427Z,20.89
2022-08-19T07:16:07.289Z,20.79
2022-08-19T07:18:07.561Z,20.70
2022-08-19T07:19:11.809Z,21.39
2022-08-19T07:20:09.623Z,20.39
2022-08-19T07:22:07.684Z,19.60
2022-08-19T07:23:07.421Z,21.10
2022-08-19T07:24:07.611Z,20.79
2022-08-19T07:25:07.229Z,21.29
2022-08-19T07:26:07.473Z,20.10
2022-08-19T07:27:15.276Z,20.60
2022-08-19T07:28:07.548Z,20
2022-08-19T07:29:07.817Z,19.89
2022-08-19T07:30:07.426Z,20.5
2022-08-19T07:31:07.391Z,20.60
2022-08-19T07:32:07.703Z,19
2022-08-19T07:33:07.160Z,20
2022-08-19T07:35:07.510Z,19.5
2022-08-19T07:36:08.047Z,19
2022-08-19T07:37:07.379Z,18.70
2022-08-19T07:38:07.659Z,19.79
2022-08-19T07:39:08.042Z,19.10
2022-08-19T07:40:07.412Z,19.5
2022-08-19T07:41:07.100Z,18.5
2022-08-19T07:42:07.465Z,19.20
2022-08-19T07:43:07.895Z,18.79
2022-08-19T07:44:07.731Z,19.5
2022-08-19T07:45:08.183Z,18.70
2022-08-19T07:46:07.237Z,20.10
2022-08-19T07:47:07.648Z,19.79
2022-08-19T07:48:07.617Z,20.5
2022-08-19T07:49:07.116Z,19.70
2022-08-19T07:50:07.729Z,20.29
2022-08-19T07:51:07.294Z,20
2022-08-19T07:52:07.307Z,19.89
2022-08-19T07:53:07.850Z,20.5
2022-08-19T07:54:07.417Z,19.5
2022-08-19T07:55:07.690Z,19.89
2022-08-19T07:56:07.536Z,20.60
2022-08-19T07:57:07.191Z,19.20
2022-08-19T07:58:07.484Z,19.89
2022-08-19T07:59:07.263Z,19.70
2022-08-19T08:00:08.522Z,19
2022-08-19T08:01:07.364Z,20.10
2022-08-19T08:02:08.064Z,20.20
2022-08-19T08:03:07.787Z,20.60
2022-08-19T08:04:07.286Z,20.79
2022-08-19T08:05:07.585Z,20.39
2022-08-19T08:06:07.864Z,20.70
2022-08-19T08:08:07.760Z,19.70
2022-08-19T08:09:07.885Z,21.60
2022-08-19T08:10:13.997Z,20.60
2022-08-19T08:11:08.385Z,21.60
2022-08-19T08:12:32.449Z,19.39
2022-08-19T08:13:09.161Z,21.29
2022-08-19T08:14:07.872Z,21.39
2022-08-19T08:15:08.306Z,20.60
2022-08-19T08:16:10.429Z,20.10
2022-08-19T08:18:07.336Z,20.29
2022-08-19T08:19:18.208Z,20.20
2022-08-19T08:20:07.401Z,19.29
2022-08-19T08:21:07.420Z,20.29
2022-08-19T08:22:07.833Z,18.79
2022-08-19T08:23:07.466Z,19.29
2022-08-19T08:24:08.150Z,19.10
2022-08-19T08:25:07.487Z,19.20
2022-08-19T08:26:07.289Z,20.39
2022-08-19T08:27:11.300Z,19.10
2022-08-19T08:28:07.128Z,18.39
2022-08-19T08:29:11.481Z,19.29
2022-08-19T08:30:07.305Z,17.70
2022-08-19T08:32:14.264Z,16.79
2022-08-19T08:33:07.770Z,17.10
2022-08-19T08:34:07.917Z,17.79
2022-08-19T08:35:07.226Z,16.70
2022-08-19T08:36:07.872Z,15.19
2022-08-19T08:37:07.470Z,16.10
2022-08-19T08:38:07.694Z,15.5
2022-08-19T08:39:07.323Z,14.60
2022-08-19T08:40:11.272Z,14.5
2022-08-19T08:41:07.615Z,15
2022-08-19T08:42:10.416Z,14.5
2022-08-19T08:43:11.209Z,13.80
2022-08-19T08:44:07.746Z,14
2022-08-19T08:45:07.802Z,12.69
2022-08-19T08:46:07.905Z,13.5
2022-08-19T08:47:07.907Z,13.60
2022-08-19T08:48:07.628Z,13.89
2022-08-19T08:50:07.412Z,13.39
2022-08-19T08:51:07.645Z,12.60
2022-08-19T08:52:07.259Z,12.5
2022-08-19T08:53:07.838Z,12
2022-08-19T08:54:07.452Z,11.39
2022-08-19T08:55:10.270Z,11.60
2022-08-19T08:56:07.422Z,13.10
2022-08-19T08:57:07.419Z,11.69
2022-08-19T08:58:07.462Z,12.80
2022-08-19T08:59:07.619Z,12.69
2022-08-19T09:01:07.685Z,12.10
2022-08-19T09:03:07.489Z,11.39
2022-08-19T09:04:07.190Z,10.89
2022-08-19T09:05:07.604Z,10.80
2022-08-19T09:06:12.012Z,10.10
2022-08-19T09:07:18.258Z,10.60
2022-08-19T09:08:07.273Z,10.89
2022-08-19T09:09:11.764Z,10.19
2022-08-19T09:10:07.306Z,11.19
2022-08-19T09:11:07.769Z,10.10
2022-08-19T09:12:07.743Z,10.19
2022-08-19T09:13:09.147Z,9.600
2022-08-19T09:14:07.379Z,9.300
2022-08-19T09:15:07.578Z,11.30
2022-08-19T09:16:07.326Z,10.60
2022-08-19T09:17:07.651Z,9.600
2022-08-19T09:18:08.177Z,10.69
2022-08-19T09:19:07.630Z,10.60
2022-08-19T09:20:09.149Z,10.10
2022-08-19T09:21:12.316Z,9.5
2022-08-19T09:22:07.280Z,8.899
2022-08-19T09:23:07.734Z,8.600
2022-08-19T09:24:07.537Z,8.199
2022-08-19T09:25:07.994Z,7.099
2022-08-19T09:26:07.362Z,7.400
2022-08-19T09:27:18.303Z,7.800
2022-08-19T09:28:22.686Z,8.199
2022-08-19T09:29:07.415Z,7.300
2022-08-19T09:30:07.960Z,7
2022-08-19T09:31:07.682Z,6.800
2022-08-19T09:32:07.191Z,6.199
2022-08-19T09:34:07.450Z,6.900
2022-08-19T09:35:08.634Z,6.699
2022-08-19T09:36:08.570Z,6.199
2022-08-19T09:37:07.691Z,5.900
2022-08-19T09:38:07.393Z,6.199
2022-08-19T09:39:16.089Z,5.400
2022-08-19T09:40:07.948Z,5.5
2022-08-19T09:41:07.369Z,5.400
2022-08-19T09:43:11.487Z,5.300
2022-08-19T09:44:07.439Z,6.300
2022-08-19T09:45:10.400Z,6.199
2022-08-19T09:46:07.345Z,6
2022-08-19T09:47:07.632Z,5.400
2022-08-19T09:48:07.287Z,6
2022-08-19T09:49:07.621Z,6.400
2022-08-19T09:50:07.728Z,6.199
2022-08-19T09:51:07.346Z,6.099
2022-08-19T09:52:07.617Z,6.300
2022-08-19T09:53:07.787Z,6.199
2022-08-19T09:54:07.164Z,5.900
2022-08-19T09:55:07.602Z,6.699
2022-08-19T09:56:07.375Z,6.800
2022-08-19T09:57:07.869Z,6.099
2022-08-19T09:58:07.365Z,7
2022-08-19T10:00:07.947Z,6.800
2022-08-19T10:01:07.921Z,7
2022-08-19T10:02:10.584Z,6.5
2022-08-19T10:03:07.391Z,5.900
2022-08-19T10:04:14.720Z,7.5
2022-08-19T10:05:07.517Z,6.199
2022-08-19T10:06:15.131Z,6.300
2022-08-19T10:07:07.462Z,6.5
2022-08-19T10:08:07.663Z,6.099
2022-08-19T10:09:08.980Z,6.800
2022-08-19T10:10:07.876Z,6.300
2022-08-19T10:11:28.481Z,6.400
2022-08-19T10:12:11.251Z,7.099
2022-08-19T10:13:07.534Z,5.800
2022-08-19T10:14:07.537Z,7.5
2022-08-19T10:15:08.080Z,6.699
2022-08-19T10:16:07.602Z,7.199
2022-08-19T10:17:19.931Z,7.099
2022-08-19T10:18:07.553Z,7.400
2022-08-19T10:19:08.040Z,7.900
2022-08-19T10:20:07.808Z,9.100
2022-08-19T10:21:07.644Z,8.100
2022-08-19T10:23:07.858Z,6.900
2022-08-19T10:24:09.454Z,7.199
2022-08-19T10:25:07.341Z,7.400
2022-08-19T10:27:07.749Z,7.800
2022-08-19T10:28:10.756Z,7.300
2022-08-19T10:29:09.463Z,8.5
2022-08-19T10:30:09.896Z,7.300
2022-08-19T10:31:07.681Z,7.900
2022-08-19T10:32:09.405Z,7.599
2022-08-19T10:33:11.044Z,8.300
2022-08-19T10:34:10.000Z,7.599
2022-08-19T10:35:07.791Z,7.400
2022-08-19T10:37:10.158Z,7.199
2022-08-19T10:38:07.440Z,6.800
2022-08-19T10:39:08.120Z,7.099
2022-08-19T10:42:07.265Z,7
2022-08-19T10:43:07.745Z,8
2022-08-19T10:44:07.425Z,6.800
2022-08-19T10:45:08.025Z,7.099
2022-08-19T10:46:14.238Z,6.699
2022-08-19T10:47:17.289Z,7.300
2022-08-19T10:48:07.784Z,7.199
2022-08-19T10:49:07.752Z,7.5
2022-08-19T10:50:07.880Z,7.599
2022-08-19T10:51:07.855Z,7
2022-08-19T10:52:07.660Z,7.199
2022-08-19T10:53:08.042Z,7.5
2022-08-19T10:54:12.383Z,8.800
2022-08-19T10:55:08.515Z,7.699
2022-08-19T10:56:07.677Z,7.300
2022-08-19T10:57:07.244Z,7.5
2022-08-19T10:58:07.988Z,7
2022-08-19T10:59:07.339Z,6.900
2022-08-19T11:00:08.580Z,7.099
2022-08-19T11:01:08.018Z,6.900
2022-08-19T11:02:07.699Z,7.099
2022-08-19T11:03:07.360Z,8
2022-08-19T11:04:07.650Z,6.800
2022-08-19T11:05:12.796Z,7.900
2022-08-19T11:06:07.930Z,8.100
2022-08-19T11:07:07.561Z,8.399
2022-08-19T11:08:22.902Z,9.300
2022-08-19T11:09:07.512Z,8.300
2022-08-19T11:10:11.493Z,8.600
2022-08-19T11:11:07.903Z,7.599
2022-08-19T11:12:07.587Z,9
2022-08-19T11:13:08.042Z,8.399
2022-08-19T11:14:07.650Z,9
2022-08-19T11:15:08.403Z,8.899
2022-08-19T11:16:07.923Z,9.699
2022-08-19T11:17:07.995Z,8
2022-08-19T11:18:07.677Z,9.100
2022-08-19T11:19:07.077Z,9.399
2022-08-19T11:21:07.283Z,9
2022-08-19T11:22:07.689Z,9.199
2022-08-19T11:23:07.633Z,9.600
2022-08-19T11:24:07.521Z,10.10
2022-08-19T11:25:07.266Z,9.600
2022-08-19T11:26:07.915Z,10.19
2022-08-19T11:27:07.833Z,9.800
2022-08-19T11:28:07.364Z,9.600
2022-08-19T11:29:07.646Z,9.800
2022-08-19T11:30:07.094Z,10.39
2022-08-19T11:31:07.084Z,10.5
2022-08-19T11:32:07.737Z,11.69
2022-08-19T11:33:07.505Z,10.89
2022-08-19T11:34:07.469Z,10.30
2022-08-19T11:35:08.033Z,10.19
2022-08-19T11:36:07.546Z,10.69
2022-08-19T11:37:07.251Z,10
2022-08-19T11:38:09.884Z,10.39
2022-08-19T11:39:07.772Z,11.10
2022-08-19T11:40:07.676Z,10.80
2022-08-19T11:41:07.892Z,11.19
2022-08-19T11:42:07.372Z,10.39
2022-08-19T11:43:07.973Z,10.5
2022-08-19T11:44:07.427Z,11.5
2022-08-19T11:45:08.107Z,11.10
2022-08-19T11:46:07.604Z,10.89
2022-08-19T11:47:08.833Z,10.60
2022-08-19T11:48:07.481Z,11.19
2022-08-19T11:50:08.060Z,12.5
2022-08-19T11:51:07.796Z,13.10
2022-08-19T11:52:07.432Z,11.80
2022-08-19T11:53:07.985Z,11.89
2022-08-19T11:54:08.481Z,11.5
2022-08-19T11:55:08.277Z,12.60
2022-08-19T11:56:07.977Z,11.39
2022-08-19T11:57:07.646Z,12.60
2022-08-19T11:58:07.050Z,13.10
2022-08-19T11:59:08.826Z,11.89
2022-08-19T12:00:21.886Z,11.19
2022-08-19T12:01:07.499Z,12.69
2022-08-19T12:02:07.769Z,12.60
2022-08-19T12:03:07.319Z,12.39
2022-08-19T12:04:07.568Z,12.69
2022-08-19T12:05:11.971Z,11.30
2022-08-19T12:06:07.623Z,12.10
2022-08-19T12:07:07.370Z,12.69
2022-08-19T12:08:07.775Z,11.19
2022-08-19T12:09:07.684Z,10.89
2022-08-19T12:10:07.366Z,11.19
2022-08-19T12:11:07.695Z,11.60
2022-08-19T12:12:07.287Z,11.5
2022-08-19T12:13:08.340Z,11.60
2022-08-19T12:14:07.913Z,10.30
2022-08-19T12:15:08.439Z,11.19
2022-08-19T12:16:07.534Z,10.30
2022-08-19T12:17:07.619Z,10.39
2022-08-19T12:18:07.502Z,10.89
2022-08-19T12:19:07.392Z,9.199
2022-08-19T12:20:07.598Z,10.10
2022-08-19T12:21:07.849Z,8.5
2022-08-19T12:22:07.387Z,9.699
2022-08-19T12:23:07.983Z,9.300
2022-08-19T12:24:07.541Z,9.199
2022-08-19T12:25:08.110Z,9.399
2022-08-19T12:26:07.660Z,8
2022-08-19T12:27:12.485Z,8.699
2022-08-19T12:28:07.421Z,8.199
2022-08-19T12:29:07.841Z,7.300
2022-08-19T12:30:07.869Z,7.400
2022-08-19T12:31:07.614Z,7.199
2022-08-19T12:32:07.453Z,6.5
2022-08-19T12:33:07.420Z,7.400
2022-08-19T12:34:08.231Z,6.800
2022-08-19T12:35:07.348Z,7.199
2022-08-19T12:36:08.281Z,6.199
2022-08-19T12:37:08.094Z,6.5
2022-08-19T12:38:07.695Z,6.199
2022-08-19T12:39:07.304Z,6.400
2022-08-19T12:40:07.395Z,6
2022-08-19T12:41:07.434Z,6.199
2022-08-19T12:42:07.185Z,5.900
2022-08-19T12:44:07.447Z,5.599
2022-08-19T12:45:07.838Z,5.699
2022-08-19T12:46:07.116Z,5.300
2022-08-19T12:47:08.011Z,5.199
2022-08-19T12:48:32.966Z,5.699
2022-08-19T12:49:15.329Z,5.800
2022-08-19T12:50:07.635Z,5.300
2022-08-19T12:51:07.286Z,5.5
2022-08-19T12:52:07.722Z,5.400
2022-08-19T12:53:07.332Z,5.199
2022-08-19T12:54:07.627Z,6.300
2022-08-19T12:55:07.325Z,5.699
2022-08-19T12:57:07.591Z,5.800
2022-08-19T12:58:07.939Z,5.5
2022-08-19T12:59:07.614Z,5.400
2022-08-19T13:00:08.810Z,5.5
2022-08-19T13:01:07.486Z,5
2022-08-19T13:02:07.481Z,5.300
2022-08-19T13:03:07.854Z,5.5
2022-08-19T13:05:07.398Z,5.099
2022-08-19T13:06:07.814Z,5.199
2022-08-19T13:07:07.522Z,5.5
2022-08-19T13:08:08.198Z,5.300
2022-08-19T13:09:07.689Z,6.099
2022-08-19T13:11:07.423Z,5.599
2022-08-19T13:12:08.194Z,5.300
2022-08-19T13:13:07.972Z,5.599
2022-08-19T13:14:07.648Z,6.099
2022-08-19T13:15:11.132Z,5.900
2022-08-19T13:16:07.494Z,5.300
2022-08-19T13:17:07.954Z,5.400
2022-08-19T13:19:07.615Z,5.199
2022-08-19T13:20:08.072Z,5.599
2022-08-19T13:21:08.331Z,5.400
2022-08-19T13:22:14.959Z,5.300
2022-08-19T13:23:08.061Z,5.5
2022-08-19T13:24:08.068Z,6.400
2022-08-19T13:25:07.229Z,6.300
2022-08-19T13:26:07.982Z,7
2022-08-19T13:27:07.611Z,6
2022-08-19T13:28:07.981Z,5.900
2022-08-19T13:29:08.294Z,6.099
2022-08-19T13:30:08.470Z,5.900
2022-08-19T13:31:07.918Z,5.699
2022-08-19T13:32:07.609Z,6.300
2022-08-19T13:33:07.834Z,5.800
2022-08-19T13:34:07.511Z,6.599
2022-08-19T13:35:07.359Z,6.099
2022-08-19T13:36:07.669Z,6.199
2022-08-19T13:37:07.302Z,5.599
2022-08-19T13:38:12.133Z,6.300
2022-08-19T13:39:08.028Z,6.699
2022-08-19T13:40:08.043Z,6.800
2022-08-19T13:42:07.708Z,6
2022-08-19T13:43:17.712Z,6.400
2022-08-19T13:44:07.168Z,5.900
2022-08-19T13:45:08.144Z,6
2022-08-19T13:46:07.797Z,5.900
2022-08-19T13:47:07.630Z,5.300
2022-08-19T13:48:07.171Z,5.599
2022-08-19T13:49:07.547Z,6
2022-08-19T13:50:07.920Z,5.800
2022-08-19T13:51:07.306Z,5.699
2022-08-19T13:52:07.856Z,6
2022-08-19T13:54:08.293Z,5.699
2022-08-19T13:55:07.868Z,5.5
2022-08-19T13:57:07.878Z,6.900
2022-08-19T13:58:07.245Z,6
2022-08-19T13:59:07.452Z,5.900
2022-08-19T14:00:08.690Z,6
2022-08-19T14:01:07.525Z,5.800
2022-08-19T14:02:07.375Z,5.900
2022-08-19T14:03:09.431Z,7
2022-08-19T14:04:07.111Z,6.5
2022-08-19T14:05:08.094Z,7.099
2022-08-19T14:06:07.862Z,6.800
2022-08-19T14:07:07.648Z,6
2022-08-19T14:08:08.052Z,6.199